LERS/REU METAR and TAF weather

Enter ICAO airport designator
Station Type Date Time Source
LERS METAR 2018/12/10 08:30 UTC NOAA

LERS 100830Z 36006KT CAVOK 11/05 Q1029


Station Type Date Time Source
LERS Decoded METAR 2018/12/10 08:30 UTC NOAA

Reus / Aeropuerto, Spain (LERS) 41-09N 001-10E 76M
Dec 10, 2018 - 03:30 AM EST / 2018.12.10 0830 UTC
Wind: from the N (360 degrees) at 7 MPH (6 KT):0
Visibility: greater than 7 mile(s):0
Temperature: 51 F (11 C)
Dew Point: 41 F (5 C)
Relative Humidity: 66%
Pressure (altimeter): 30.39 in. Hg (1029 hPa)
ob: LERS 100830Z 36006KT CAVOK 11/05 Q1029
cycle: 8

Station Type Date Time Source
LERS TAF 2018/12/10 09:30 UTC NOAA

TAF LERS 100800Z 1009/1109 VRB03KT 9999 FEW040 TX15/1013Z TN04/1106Z
TEMPO 1012/1015 28007KT


Example: see airport list